Time;durP1;ratioP1;P1;durP2;ratioP2;P2;SDS_P1;SDS_P2;PMS_P1;PMS_P2;Temp;Humidity;BMP_temperature;BMP_pressure;BME280_temperature;BME280_humidity;BME280_pressure;Samples;Min_cycle;Max_cycle;Signal;HPM_P1;HPM_P2
2022/02/15 00:02:07;;;;;;;12.7;7.5;;;;;;;3.43;67.31348;930.8571;;;;
2022/02/15 00:04:42;;;;;;;11;6.8;;;;;;;3.1;68.79785;930.8193;;;;
2022/02/15 00:07:12;;;;;;;37.3;16.8;;;;;;;3.04;68.54199;930.8903;;;;
2022/02/15 00:09:49;;;;;;;22.5;10.4;;;;;;;3.26;68.12695;930.884;;;;
2022/02/15 00:12:21;;;;;;;12.6;7.2;;;;;;;3.13;67.9043;930.8705;;;;
2022/02/15 00:15:07;;;;;;;8.9;5.6;;;;;;;2.94;68.61426;930.8645;;;;
2022/02/15 00:17:44;;;;;;;8.3;5.1;;;;;;;3.18;68.14746;930.9369;;;;
2022/02/15 00:20:22;;;;;;;10.7;5.7;;;;;;;3.14;68.05176;930.8988;;;;
2022/02/15 00:22:59;;;;;;;7.6;4.9;;;;;;;3.29;67.66211;930.9219;;;;
2022/02/15 00:25:36;;;;;;;9.5;5.3;;;;;;;3.4;67.30762;930.9283;;;;
2022/02/15 00:28:13;;;;;;;6.9;4.5;;;;;;;3.29;67.76172;930.8399;;;;
2022/02/15 00:30:51;;;;;;;8.3;5.2;;;;;;;3.41;68.19531;930.8792;;;;
2022/02/15 00:33:26;;;;;;;7.4;4.5;;;;;;;3.56;67.34375;930.7971;;;;
2022/02/15 00:35:57;;;;;;;7.6;4.7;;;;;;;3.62;66.89453;930.8618;;;;
2022/02/15 00:38:32;;;;;;;5.9;4.3;;;;;;;3.65;67.02148;930.938;;;;
2022/02/15 00:40:58;;;;;;;8.7;4.7;;;;;;;3.64;67.21191;931.0095;;;;
2022/02/15 00:43:26;;;;;;;8;4.8;;;;;;;3.45;67.6084;930.9827;;;;
2022/02/15 00:45:57;;;;;;;7.4;4.6;;;;;;;3.48;67.60156;930.9472;;;;
2022/02/15 00:48:23;;;;;;;7.3;4.3;;;;;;;3.42;67.76172;931.0511;;;;
2022/02/15 00:50:47;;;;;;;6;4;;;;;;;3.36;68.25684;930.9897;;;;
2022/02/15 00:53:13;;;;;;;6.6;4.4;;;;;;;3.42;69.1084;931.0527;;;;
2022/02/15 00:55:38;;;;;;;8.2;4.9;;;;;;;3.49;68.81738;931.1041;;;;
2022/02/15 00:58:03;;;;;;;6.7;4.6;;;;;;;3.65;67.57227;931.0892;;;;
2022/02/15 01:00:28;;;;;;;6.5;4.4;;;;;;;3.65;66.75195;931.0318;;;;
2022/02/15 01:03:05;;;;;;;9;4.5;;;;;;;3.54;67.12695;931.1232;;;;
2022/02/15 01:05:38;;;;;;;7.3;4.9;;;;;;;3.52;67.60742;931.1472;;;;
2022/02/15 01:08:04;;;;;;;8.8;5;;;;;;;3.39;68.05859;931.1713;;;;
2022/02/15 01:10:33;;;;;;;6.7;4.5;;;;;;;3.49;67.68262;931.123;;;;
2022/02/15 01:13:04;;;;;;;8.8;4.7;;;;;;;3.53;67.58594;931.1356;;;;
2022/02/15 01:15:43;;;;;;;7.8;4;;;;;;;3.61;67.87988;931.0826;;;;
2022/02/15 01:18:28;;;;;;;6.7;4.4;;;;;;;3.68;67.47559;931.1252;;;;
2022/02/15 01:21:04;;;;;;;8.5;4.4;;;;;;;3.64;67.17773;931.0961;;;;
2022/02/15 01:23:41;;;;;;;7.3;4.3;;;;;;;3.66;67.02344;931.1248;;;;
2022/02/15 01:26:14;;;;;;;4.9;3.4;;;;;;;3.67;66.99121;931.0958;;;;
2022/02/15 01:28:48;;;;;;;14;11.6;;;;;;;3.64;67.53613;931.0416;;;;
2022/02/15 01:31:23;;;;;;;13.1;10.8;;;;;;;3.75;67.08301;931.0898;;;;
2022/02/15 01:33:49;;;;;;;10.6;5.2;;;;;;;3.72;67.24512;931.116;;;;
2022/02/15 01:36:20;;;;;;;8.6;4.3;;;;;;;3.71;67.81738;931.077;;;;
2022/02/15 01:38:52;;;;;;;7.7;3.7;;;;;;;3.81;67.11523;931.0712;;;;
2022/02/15 01:41:19;;;;;;;6.6;3.4;;;;;;;3.85;66.97461;931.0995;;;;
2022/02/15 01:43:51;;;;;;;5;2.9;;;;;;;3.89;66.46289;931.0681;;;;
2022/02/15 01:46:21;;;;;;;4.7;3.1;;;;;;;3.86;66.45898;931.0864;;;;
2022/02/15 01:48:50;;;;;;;4.7;3;;;;;;;3.69;67.20605;931.1222;;;;
2022/02/15 01:51:15;;;;;;;5.2;3.4;;;;;;;3.72;67.15527;931.1426;;;;
2022/02/15 01:53:44;;;;;;;4.6;2.9;;;;;;;3.75;67.4209;931.0458;;;;
2022/02/15 01:56:09;;;;;;;4.7;2.9;;;;;;;3.73;67.75391;931.0461;;;;
2022/02/15 01:58:38;;;;;;;5.2;3.3;;;;;;;3.78;67.49121;931.1316;;;;
2022/02/15 02:01:03;;;;;;;5.5;3.3;;;;;;;3.75;67.81348;931.1836;;;;
2022/02/15 02:03:30;;;;;;;6.4;3.5;;;;;;;3.71;68.53613;931.1347;;;;
2022/02/15 02:06:02;;;;;;;6.8;3.9;;;;;;;3.82;68.71094;931.1775;;;;
2022/02/15 02:08:34;;;;;;;4.9;3.7;;;;;;;3.74;69.125;931.1495;;;;
2022/02/15 02:11:04;;;;;;;7.2;3.8;;;;;;;3.65;70.21289;931.168;;;;
2022/02/15 02:13:36;;;;;;;6.3;3.5;;;;;;;3.78;70.00879;931.2906;;;;
2022/02/15 02:16:17;;;;;;;5.9;3.5;;;;;;;3.79;69.77441;931.3167;;;;
2022/02/15 02:18:53;;;;;;;6;3.6;;;;;;;3.77;69.83887;931.3368;;;;
2022/02/15 02:21:21;;;;;;;6.7;3.7;;;;;;;3.76;70.47852;931.3318;;;;
2022/02/15 02:23:53;;;;;;;6.1;3.5;;;;;;;3.78;70.50391;931.3922;;;;
2022/02/15 02:26:18;;;;;;;4.8;3.2;;;;;;;3.79;70.70703;931.3956;;;;
2022/02/15 02:28:49;;;;;;;7.1;3.7;;;;;;;3.8;70.50684;931.4548;;;;
2022/02/15 02:31:21;;;;;;;7.2;3.4;;;;;;;3.81;70.19336;931.4254;;;;
2022/02/15 02:33:54;;;;;;;5.9;2.8;;;;;;;4.01;68.85547;931.3964;;;;
2022/02/15 02:36:21;;;;;;;5.2;3;;;;;;;3.96;68.8584;931.3722;;;;
2022/02/15 02:38:47;;;;;;;4.9;3.1;;;;;;;3.88;69.41992;931.4688;;;;
2022/02/15 02:41:14;;;;;;;5.4;3.1;;;;;;;3.89;69.04883;931.4406;;;;
2022/02/15 02:43:47;;;;;;;5.5;3;;;;;;;3.99;68.43555;931.4578;;;;
2022/02/15 02:46:13;;;;;;;5.1;3.2;;;;;;;3.95;68.81348;931.4799;;;;
2022/02/15 02:48:43;;;;;;;5.3;3.5;;;;;;;3.95;69.44141;931.4947;;;;
2022/02/15 02:51:10;;;;;;;3.7;2.9;;;;;;;4.08;68.84375;931.5192;;;;
2022/02/15 02:53:40;;;;;;;5.9;3.1;;;;;;;4;68.23535;931.5628;;;;
2022/02/15 02:56:05;;;;;;;5.3;3.1;;;;;;;3.95;68.7334;931.4995;;;;
2022/02/15 02:58:33;;;;;;;5.1;3.1;;;;;;;4;68.11035;931.5139;;;;
2022/02/15 03:00:58;;;;;;;4.7;3;;;;;;;4.04;67.76953;931.5341;;;;
2022/02/15 03:03:28;;;;;;;5.4;3.2;;;;;;;4.15;66.91992;931.5193;;;;
2022/02/15 03:05:53;;;;;;;4.9;3;;;;;;;4.02;67.2373;931.5936;;;;
2022/02/15 03:08:22;;;;;;;8.3;3.6;;;;;;;4.08;67.62891;931.6208;;;;
2022/02/15 03:10:48;;;;;;;4.4;3;;;;;;;4.06;67.00684;931.6213;;;;
2022/02/15 03:13:17;;;;;;;6.5;3.4;;;;;;;3.96;67.63281;931.6478;;;;
2022/02/15 03:16:03;;;;;;;5.8;3.3;;;;;;;4.08;68.25977;931.6919;;;;
2022/02/15 03:18:33;;;;;;;6.9;3.9;;;;;;;3.82;68.53125;931.7185;;;;
2022/02/15 03:21:01;;;;;;;5.8;3.6;;;;;;;3.81;68.64355;931.7814;;;;
2022/02/15 03:23:30;;;;;;;6;3.4;;;;;;;3.97;68.4209;931.7795;;;;
2022/02/15 03:25:58;;;;;;;5.4;3.4;;;;;;;3.84;68.43262;931.8426;;;;
2022/02/15 03:28:29;;;;;;;8.7;4.2;;;;;;;3.77;68.60449;931.8856;;;;
2022/02/15 03:30:54;;;;;;;6.7;3.7;;;;;;;3.81;68.53027;931.9176;;;;
2022/02/15 03:33:23;;;;;;;7;3.4;;;;;;;3.84;68.4668;931.963;;;;
2022/02/15 03:35:53;;;;;;;7.8;3.9;;;;;;;3.89;68.48828;931.9794;;;;
2022/02/15 03:38:21;;;;;;;6;4;;;;;;;3.83;68.66895;931.9825;;;;
2022/02/15 03:43:12;;;;;;;5.8;3.8;;;;;;;3.99;69.00879;932.0415;;;;
2022/02/15 03:45:38;;;;;;;7.1;4;;;;;;;4.03;69.6123;932.0806;;;;
2022/02/15 03:48:02;;;;;;;7.3;3.7;;;;;;;4.04;70.45703;932.1848;;;;
2022/02/15 03:50:34;;;;;;;6.7;4.1;;;;;;;4.07;71.37207;932.1925;;;;
2022/02/15 03:53:00;;;;;;;7.4;3.9;;;;;;;4.08;71.69043;932.2361;;;;
2022/02/15 03:55:27;;;;;;;6.2;3.9;;;;;;;3.98;72.75195;932.3098;;;;
2022/02/15 03:58:00;;;;;;;6.1;3.9;;;;;;;3.94;72.68945;932.3152;;;;
2022/02/15 04:02:47;;;;;;;5.2;3.8;;;;;;;3.76;75.04102;932.468;;;;
2022/02/15 04:05:24;;;;;;;5.8;3.7;;;;;;;3.58;76.39063;932.4575;;;;
2022/02/15 04:07:54;;;;;;;5.1;3.8;;;;;;;3.56;76.95898;932.4349;;;;
2022/02/15 04:10:19;;;;;;;4.4;3.4;;;;;;;3.54;77.83203;932.4894;;;;
2022/02/15 04:12:44;;;;;;;6.1;3.6;;;;;;;3.42;79.11523;932.4542;;;;
2022/02/15 04:15:19;;;;;;;6.9;3.9;;;;;;;3.57;78.94922;932.4989;;;;
2022/02/15 04:17:50;;;;;;;4.9;3.6;;;;;;;3.47;79.6748;932.6145;;;;
2022/02/15 04:20:15;;;;;;;5.7;3.4;;;;;;;3.42;80.23828;932.5745;;;;
2022/02/15 04:22:44;;;;;;;4.5;3.7;;;;;;;3.48;80.71973;932.6264;;;;
2022/02/15 04:25:09;;;;;;;6;4;;;;;;;3.34;81.6582;932.5689;;;;
2022/02/15 04:27:34;;;;;;;5.1;3.6;;;;;;;3.3;82.16699;932.6663;;;;
2022/02/15 04:30:02;;;;;;;7.8;4.2;;;;;;;3.36;82.22266;932.7159;;;;
2022/02/15 04:32:27;;;;;;;7.8;4;;;;;;;3.26;82.98926;932.7634;;;;
2022/02/15 04:34:53;;;;;;;6.1;3.9;;;;;;;3.09;83.93164;932.7772;;;;
2022/02/15 04:37:21;;;;;;;6.5;4;;;;;;;2.92;85.7168;932.7849;;;;
2022/02/15 04:39:53;;;;;;;6;3.9;;;;;;;3.04;85.2041;932.8318;;;;
2022/02/15 04:42:18;;;;;;;5.2;3.8;;;;;;;3.11;85.25;932.793;;;;
2022/02/15 04:44:46;;;;;;;6;4;;;;;;;3.15;85.34766;932.7302;;;;
2022/02/15 04:47:11;;;;;;;6.4;3.7;;;;;;;3.24;85.09766;932.7653;;;;
2022/02/15 04:49:38;;;;;;;6.3;4.2;;;;;;;3.27;85.08984;932.7927;;;;
2022/02/15 04:52:03;;;;;;;6.2;4.5;;;;;;;3.32;84.91211;932.7841;;;;
2022/02/15 04:54:31;;;;;;;8.6;5.2;;;;;;;3.26;85.49219;932.783;;;;
2022/02/15 04:56:56;;;;;;;12;7.3;;;;;;;3.36;85.37793;932.748;;;;
2022/02/15 04:59:24;;;;;;;13.1;8.4;;;;;;;3.45;84.95996;932.7258;;;;
2022/02/15 05:01:49;;;;;;;10.7;6.9;;;;;;;3.37;85.29199;932.6949;;;;
2022/02/15 05:06:45;;;;;;;12.7;7.6;;;;;;;3.41;85.32129;932.7639;;;;
2022/02/15 05:09:15;;;;;;;13.8;8.5;;;;;;;3.41;85.35547;932.7623;;;;
2022/02/15 05:11:47;;;;;;;12.6;7.5;;;;;;;3.48;85.18945;932.8091;;;;
2022/02/15 05:14:17;;;;;;;8.1;5.9;;;;;;;3.34;85.73535;932.8121;;;;
2022/02/15 05:16:47;;;;;;;8;4.9;;;;;;;3.29;86.16016;932.8499;;;;
2022/02/15 05:19:13;;;;;;;6.9;5.5;;;;;;;3.31;86.29883;932.7939;;;;
2022/02/15 05:21:38;;;;;;;8.1;5.2;;;;;;;3.28;86.40527;932.8332;;;;
2022/02/15 05:24:06;;;;;;;8.1;5.3;;;;;;;3.34;86.40918;932.9097;;;;
2022/02/15 05:26:34;;;;;;;7.9;5.3;;;;;;;3.46;85.61328;932.8983;;;;
2022/02/15 05:29:03;;;;;;;6.7;4;;;;;;;3.2;87.40137;932.9562;;;;
2022/02/15 05:31:37;;;;;;;7.2;4.3;;;;;;;3.34;86.90332;932.8971;;;;
2022/02/15 05:34:02;;;;;;;8.1;4.3;;;;;;;3.33;86.84277;932.8943;;;;
2022/02/15 05:36:37;;;;;;;8.4;4.2;;;;;;;3.35;86.74609;932.9225;;;;
2022/02/15 05:39:07;;;;;;;6;4.2;;;;;;;3.39;86.56445;932.9645;;;;
2022/02/15 05:41:35;;;;;;;7.4;4.4;;;;;;;3.42;86.60352;932.9662;;;;
2022/02/15 05:44:01;;;;;;;7.9;4.8;;;;;;;3.38;86.86523;932.9531;;;;
2022/02/15 05:46:29;;;;;;;6.2;4.1;;;;;;;3.37;87.12207;932.9615;;;;
2022/02/15 05:48:54;;;;;;;6.6;4.3;;;;;;;3.41;86.94922;932.9072;;;;
2022/02/15 05:51:22;;;;;;;6.7;4.3;;;;;;;3.35;87.04883;932.995;;;;
2022/02/15 05:53:47;;;;;;;7.5;4.8;;;;;;;3.31;87.66992;932.9766;;;;
2022/02/15 05:56:16;;;;;;;7.2;4.9;;;;;;;3.37;87.61621;932.9672;;;;
2022/02/15 05:58:46;;;;;;;5.2;4.1;;;;;;;3.36;87.26563;932.926;;;;
2022/02/15 06:01:12;;;;;;;10.8;4.8;;;;;;;3.41;87.00391;933.0447;;;;
2022/02/15 06:06:09;;;;;;;8.2;5.1;;;;;;;3.35;87.82324;933.0129;;;;
2022/02/15 06:08:38;;;;;;;10.1;5.8;;;;;;;3.45;87.2168;933.1216;;;;
2022/02/15 06:11:03;;;;;;;13.9;7.5;;;;;;;3.5;86.63086;933.196;;;;
2022/02/15 06:13:32;;;;;;;10.4;8.3;;;;;;;3.49;86.7207;933.2289;;;;
2022/02/15 06:16:09;;;;;;;11.6;8.3;;;;;;;3.48;86.53809;933.286;;;;
2022/02/15 06:18:35;;;;;;;10.7;7.4;;;;;;;3.37;86.93066;933.2961;;;;
2022/02/15 06:21:01;;;;;;;8.3;5.6;;;;;;;3.41;86.91602;933.2267;;;;
2022/02/15 06:23:31;;;;;;;7.4;5.3;;;;;;;3.43;87.06543;933.3845;;;;
2022/02/15 06:25:58;;;;;;;7.1;5.4;;;;;;;3.38;87.37109;933.4238;;;;
2022/02/15 06:28:29;;;;;;;7.7;5.1;;;;;;;3.38;87.57129;933.4039;;;;
2022/02/15 06:30:58;;;;;;;8.1;5.4;;;;;;;3.52;86.91602;933.427;;;;
2022/02/15 06:33:23;;;;;;;9.8;7.3;;;;;;;3.43;87.33496;933.4828;;;;
2022/02/15 06:35:55;;;;;;;9;5.8;;;;;;;3.53;86.77148;933.481;;;;
2022/02/15 06:38:24;;;;;;;8.4;5.5;;;;;;;3.61;86.37207;933.5235;;;;
2022/02/15 06:40:56;;;;;;;6.3;5;;;;;;;3.62;86.35156;933.6017;;;;
2022/02/15 06:43:26;;;;;;;34;21.5;;;;;;;3.64;86.4248;933.6372;;;;
2022/02/15 06:45:54;;;;;;;9.3;6.2;;;;;;;3.55;86.65332;933.5516;;;;
2022/02/15 06:48:20;;;;;;;10.3;7;;;;;;;3.62;86.55566;933.6492;;;;
2022/02/15 06:50:49;;;;;;;13.7;9;;;;;;;3.57;86.84668;933.626;;;;
2022/02/15 06:53:19;;;;;;;26.4;18.1;;;;;;;3.56;87.06934;933.6556;;;;
2022/02/15 06:55:44;;;;;;;13.5;8.2;;;;;;;3.61;86.95703;933.6935;;;;
2022/02/15 06:58:12;;;;;;;7.1;4.8;;;;;;;3.41;87.74707;933.6155;;;;
2022/02/15 07:00:47;;;;;;;8.9;5.1;;;;;;;3.48;87.66113;933.6669;;;;
2022/02/15 07:03:08;;;;;;;6.9;4.6;;;;;;;3.53;87.33301;933.6666;;;;
2022/02/15 07:05:37;;;;;;;7.7;4.8;;;;;;;3.63;86.92871;933.7014;;;;
2022/02/15 07:08:02;;;;;;;6.2;4.3;;;;;;;3.59;87.07422;933.7383;;;;
2022/02/15 07:10:32;;;;;;;7;4.6;;;;;;;3.56;87.37207;933.7462;;;;
2022/02/15 07:13:01;;;;;;;8.2;5.3;;;;;;;3.57;87.63477;933.7198;;;;
2022/02/15 07:15:29;;;;;;;7.5;5.2;;;;;;;3.55;87.78613;933.7545;;;;
2022/02/15 07:18:28;;;;;;;7.3;5.8;;;;;;;3.57;87.79199;933.8394;;;;
2022/02/15 07:20:29;;;;;;;10;6.9;;;;;;;3.65;87.81934;933.8387;;;;
2022/02/15 07:22:59;;;;;;;8.9;6.3;;;;;;;3.5;88.00098;933.8761;;;;
2022/02/15 07:25:32;;;;;;;11.7;9.8;;;;;;;3.51;88.60938;933.8299;;;;
2022/02/15 07:28:03;;;;;;;9.2;6.5;;;;;;;3.62;87.94922;933.7972;;;;
2022/02/15 07:30:36;;;;;;;6.2;5.4;;;;;;;3.59;87.94141;933.918;;;;
2022/02/15 07:33:01;;;;;;;7.6;6;;;;;;;3.71;87.8418;933.8608;;;;
2022/02/15 07:35:34;;;;;;;9.5;7.5;;;;;;;3.76;87.77441;933.9537;;;;
2022/02/15 07:37:59;;;;;;;7.4;5.2;;;;;;;3.51;88.27246;933.9905;;;;
2022/02/15 07:40:29;;;;;;;9.1;6;;;;;;;3.57;88.84766;933.9906;;;;
2022/02/15 07:42:59;;;;;;;8.9;6.4;;;;;;;3.74;88.11719;934.0168;;;;
2022/02/15 07:45:23;;;;;;;12;7.2;;;;;;;3.72;87.93555;934.0085;;;;
2022/02/15 07:47:53;;;;;;;10.4;7.9;;;;;;;3.62;88.59863;934.0748;;;;
2022/02/15 07:50:18;;;;;;;10.2;7.5;;;;;;;3.42;89.75879;934.0994;;;;
2022/02/15 07:52:47;;;;;;;10.2;6.5;;;;;;;3.46;89.73438;934.0645;;;;
2022/02/15 07:55:11;;;;;;;9.5;6.3;;;;;;;3.62;89.18457;934.0396;;;;
2022/02/15 07:57:41;;;;;;;9.5;6.6;;;;;;;3.53;89.6582;934.128;;;;
2022/02/15 08:00:04;;;;;;;10.2;7.4;;;;;;;3.57;89.52148;934.1528;;;;
2022/02/15 08:02:34;;;;;;;7.8;6.5;;;;;;;3.75;88.59277;934.1447;;;;
2022/02/15 08:05:05;;;;;;;11.1;8.1;;;;;;;3.8;88.51465;934.2036;;;;
2022/02/15 08:07:31;;;;;;;9.6;7.2;;;;;;;3.88;88.10449;934.2258;;;;
2022/02/15 08:09:59;;;;;;;9.8;7.6;;;;;;;3.96;87.90527;934.2438;;;;
2022/02/15 08:12:24;;;;;;;13.1;9.3;;;;;;;3.89;87.76855;934.3072;;;;
2022/02/15 08:14:54;;;;;;;13.5;9.3;;;;;;;3.8;88.06543;934.3107;;;;
2022/02/15 08:17:22;;;;;;;13;10.1;;;;;;;3.92;87.89844;934.2222;;;;
2022/02/15 08:19:49;;;;;;;11.4;8.9;;;;;;;4.01;87.55664;934.2991;;;;
2022/02/15 08:22:21;;;;;;;11.1;8.5;;;;;;;3.57;89.5332;934.3038;;;;
2022/02/15 08:24:53;;;;;;;11.2;8.1;;;;;;;3.8;88.99805;934.2729;;;;
2022/02/15 08:27:22;;;;;;;12.1;8.2;;;;;;;3.51;90.0498;934.27;;;;
2022/02/15 08:29:52;;;;;;;11.3;9;;;;;;;3.83;89.2959;934.2944;;;;
2022/02/15 08:32:19;;;;;;;10.8;8.7;;;;;;;3.81;88.76172;934.2514;;;;
2022/02/15 08:34:45;;;;;;;13.3;9;;;;;;;3.74;89.25391;934.2712;;;;
2022/02/15 08:37:12;;;;;;;14.3;10.1;;;;;;;3.87;89.34668;934.29;;;;
2022/02/15 08:39:42;;;;;;;12.8;10;;;;;;;4;88.56738;934.3441;;;;
2022/02/15 08:42:10;;;;;;;16.1;10;;;;;;;4.07;88.25391;934.3408;;;;
2022/02/15 08:44:36;;;;;;;12.1;9;;;;;;;4.19;88.08691;934.3273;;;;
2022/02/15 08:47:05;;;;;;;12.1;9.4;;;;;;;4.03;87.82129;934.2822;;;;
2022/02/15 08:49:29;;;;;;;12.8;10;;;;;;;3.89;88.93652;934.3315;;;;
2022/02/15 08:51:55;;;;;;;14;10.6;;;;;;;3.6;90.41699;934.3098;;;;
2022/02/15 08:54:20;;;;;;;11.7;8.8;;;;;;;3.6;90.8418;934.3063;;;;
2022/02/15 08:56:49;;;;;;;15;9.5;;;;;;;3.8;90.26758;934.2776;;;;
2022/02/15 08:59:20;;;;;;;15;10.2;;;;;;;4.08;89.60742;934.3158;;;;
2022/02/15 09:01:45;;;;;;;15.7;11.8;;;;;;;4.24;88.57129;934.3914;;;;
2022/02/15 09:04:15;;;;;;;17.2;12.8;;;;;;;4.46;87.82813;934.3878;;;;
2022/02/15 09:06:41;;;;;;;12.7;9.3;;;;;;;4.01;88.46777;934.4274;;;;
2022/02/15 09:09:13;;;;;;;11.3;8.2;;;;;;;4.18;89.36816;934.4358;;;;
2022/02/15 09:11:38;;;;;;;10.2;7.6;;;;;;;4.49;87.88965;934.3562;;;;
2022/02/15 09:14:07;;;;;;;12.5;7.1;;;;;;;4.55;87.21582;934.3555;;;;
2022/02/15 09:16:50;;;;;;;12.7;7.2;;;;;;;4.25;87.2334;934.342;;;;
2022/02/15 09:19:15;;;;;;;13.1;8.8;;;;;;;4.35;87.79297;934.3484;;;;
2022/02/15 09:21:43;;;;;;;14.4;8.6;;;;;;;4.32;87.7666;934.3738;;;;
2022/02/15 09:24:09;;;;;;;13.3;9.1;;;;;;;4.38;88.09473;934.3508;;;;
2022/02/15 09:26:33;;;;;;;18.6;12.2;;;;;;;4.49;87.23828;934.4311;;;;
2022/02/15 09:29:03;;;;;;;17.3;12.8;;;;;;;4.48;87.70996;934.4121;;;;
2022/02/15 09:31:27;;;;;;;13.4;10.1;;;;;;;4.66;86.56445;934.409;;;;
2022/02/15 09:33:59;;;;;;;14.1;9.1;;;;;;;4.86;86.13086;934.4608;;;;
2022/02/15 09:36:25;;;;;;;10.4;8.1;;;;;;;5.03;85.74902;934.5045;;;;
2022/02/15 09:38:58;;;;;;;9.2;7;;;;;;;5.01;85.04492;934.5309;;;;
2022/02/15 09:41:24;;;;;;;9.1;6;;;;;;;4.87;85.43457;934.4697;;;;
2022/02/15 09:43:54;;;;;;;8.3;6;;;;;;;4.52;86.66992;934.5193;;;;
2022/02/15 09:46:25;;;;;;;7.7;5.8;;;;;;;4.29;87.87305;934.5527;;;;
2022/02/15 09:48:54;;;;;;;8.1;6.2;;;;;;;4.31;88.83398;934.4822;;;;
2022/02/15 09:51:23;;;;;;;7;5.6;;;;;;;4.75;86.81934;934.5359;;;;
2022/02/15 09:53:47;;;;;;;9.7;6.2;;;;;;;4.94;85.93164;934.6291;;;;
2022/02/15 09:56:16;;;;;;;7.8;6.3;;;;;;;5.06;85.30371;934.6741;;;;
2022/02/15 09:58:41;;;;;;;9.1;6.7;;;;;;;5.17;85.03223;934.6397;;;;
2022/02/15 10:01:10;;;;;;;11.4;8.6;;;;;;;5.16;84.43262;934.6622;;;;
2022/02/15 10:03:40;;;;;;;9.5;7.7;;;;;;;5.16;84.36523;934.6497;;;;
2022/02/15 10:06:08;;;;;;;10.5;7.9;;;;;;;5.22;84.79297;934.7136;;;;
2022/02/15 10:08:40;;;;;;;11.2;7.8;;;;;;;5.24;84.41504;934.7679;;;;
2022/02/15 10:11:05;;;;;;;11.4;8.1;;;;;;;4.98;85.23047;934.7982;;;;
2022/02/15 10:13:35;;;;;;;10;7.7;;;;;;;4.92;86.1084;934.851;;;;
2022/02/15 10:16:08;;;;;;;10.4;8.1;;;;;;;5.06;85.59668;934.832;;;;
2022/02/15 10:18:37;;;;;;;12.9;8.4;;;;;;;5.09;85.38574;934.8831;;;;
2022/02/15 10:21:04;;;;;;;12.4;8.8;;;;;;;5.25;85.00293;934.9016;;;;
2022/02/15 10:23:30;;;;;;;12.5;8.8;;;;;;;5.05;84.97461;934.8876;;;;
2022/02/15 10:26:03;;;;;;;12.6;8.5;;;;;;;4.62;87.19727;934.8456;;;;
2022/02/15 10:28:29;;;;;;;11.1;8.3;;;;;;;5.01;86.43262;934.8923;;;;
2022/02/15 10:30:59;;;;;;;11;8.4;;;;;;;4.68;87.32031;934.8715;;;;
2022/02/15 10:33:28;;;;;;;9.9;7.6;;;;;;;4.73;88.08691;934.8681;;;;
2022/02/15 10:35:57;;;;;;;10.5;7.4;;;;;;;4.72;88.17676;934.9604;;;;
2022/02/15 10:38:22;;;;;;;10.7;7.6;;;;;;;4.97;87.4043;934.9518;;;;
2022/02/15 10:40:48;;;;;;;9.2;6.9;;;;;;;4.92;87.4043;934.9378;;;;
2022/02/15 10:43:14;;;;;;;9.7;7.4;;;;;;;4.99;87.19336;934.9506;;;;
2022/02/15 10:45:39;;;;;;;16.2;14.6;;;;;;;5.11;86.08105;934.9886;;;;
2022/02/15 10:48:13;;;;;;;10.1;7.9;;;;;;;5.27;86.11035;934.9642;;;;
2022/02/15 10:50:42;;;;;;;50.8;32.9;;;;;;;5.23;85.12305;935.0084;;;;
2022/02/15 10:53:07;;;;;;;12.4;8.6;;;;;;;5.33;85.08691;934.9736;;;;
2022/02/15 10:55:32;;;;;;;11.7;8.4;;;;;;;5.31;85.13965;935.0538;;;;
2022/02/15 10:57:59;;;;;;;12.2;9.5;;;;;;;5.41;84.96777;935.0422;;;;
2022/02/15 11:00:24;;;;;;;14.5;9.7;;;;;;;5.47;84.83301;934.9994;;;;
2022/02/15 11:02:53;;;;;;;12.3;9.7;;;;;;;5.54;84.10156;934.9771;;;;
2022/02/15 11:05:19;;;;;;;9;7.2;;;;;;;5.56;83.76758;934.9319;;;;
2022/02/15 11:07:47;;;;;;;10.8;8.4;;;;;;;5.63;83.37598;934.9725;;;;
2022/02/15 11:10:12;;;;;;;12;8.4;;;;;;;5.56;83.01172;934.9192;;;;
2022/02/15 11:12:37;;;;;;;12.5;8.2;;;;;;;5.68;82.35742;934.9719;;;;
2022/02/15 11:15:02;;;;;;;11.2;8.4;;;;;;;5.58;82.54102;935.0428;;;;
2022/02/15 11:17:27;;;;;;;11.2;8;;;;;;;5.54;82.89355;935.068;;;;
2022/02/15 11:19:59;;;;;;;12.2;8.1;;;;;;;5.45;84.10645;935.0746;;;;
2022/02/15 11:22:24;;;;;;;11.3;8.2;;;;;;;5.46;84.73047;935.0536;;;;
2022/02/15 11:24:51;;;;;;;10.3;7.7;;;;;;;5.4;84.70313;935.0383;;;;
2022/02/15 11:27:16;;;;;;;11.8;7.7;;;;;;;5.44;85.01855;935.0854;;;;
2022/02/15 11:29:44;;;;;;;8.5;6.2;;;;;;;5.65;83.91895;935.0115;;;;
2022/02/15 11:32:14;;;;;;;7.3;5.6;;;;;;;5.95;83.20996;934.923;;;;
2022/02/15 11:34:43;;;;;;;6.5;5.3;;;;;;;6.13;80.64551;934.999;;;;
2022/02/15 11:37:11;;;;;;;5.1;4.1;;;;;;;6.16;80.00586;935.0162;;;;
2022/02/15 11:39:41;;;;;;;5.2;4.1;;;;;;;6.38;79.74316;934.9656;;;;
2022/02/15 11:42:06;;;;;;;7.9;4.7;;;;;;;6.5;77.9209;934.9808;;;;
2022/02/15 11:44:36;;;;;;;5.5;4.4;;;;;;;6.39;78.19531;934.9207;;;;
2022/02/15 11:47:07;;;;;;;4.9;4;;;;;;;6.52;78.78418;934.944;;;;
2022/02/15 11:49:36;;;;;;;6;3.8;;;;;;;6.7;78.38965;934.9691;;;;
2022/02/15 11:52:08;;;;;;;5.1;3.6;;;;;;;6.39;78.79492;934.9808;;;;
2022/02/15 11:54:36;;;;;;;4.7;3.7;;;;;;;6.52;78.95605;934.9678;;;;
2022/02/15 11:57:02;;;;;;;6.8;4.2;;;;;;;6.68;78.19141;934.9695;;;;
2022/02/15 11:59:32;;;;;;;4.8;3.7;;;;;;;6.71;77.96094;935.0002;;;;
2022/02/15 12:02:01;;;;;;;5.4;4.1;;;;;;;6.68;77.59375;934.998;;;;
2022/02/15 12:04:26;;;;;;;5;3.9;;;;;;;6.73;77.8623;934.976;;;;
2022/02/15 12:06:53;;;;;;;5.1;4.3;;;;;;;6.84;77.38379;934.9102;;;;
2022/02/15 12:09:21;;;;;;;6;4.1;;;;;;;6.91;76.69336;934.9066;;;;
2022/02/15 12:11:46;;;;;;;4.6;4;;;;;;;6.92;76.8418;934.9788;;;;
2022/02/15 12:14:12;;;;;;;9;6.7;;;;;;;7.06;76.40527;934.9515;;;;
2022/02/15 12:16:38;;;;;;;8.5;6.3;;;;;;;7.08;76.64648;934.9534;;;;
2022/02/15 12:19:04;;;;;;;8.4;6.2;;;;;;;7.24;75.74414;934.95;;;;
2022/02/15 12:21:29;;;;;;;7.5;6.3;;;;;;;7.35;75.55957;934.928;;;;
2022/02/15 12:23:54;;;;;;;6.9;5.9;;;;;;;7.64;75.16797;934.8878;;;;
2022/02/15 12:26:24;;;;;;;7.5;5.6;;;;;;;7.46;74.52637;934.8564;;;;
2022/02/15 12:28:50;;;;;;;7;5.4;;;;;;;7.45;74.52441;934.9182;;;;
2022/02/15 12:31:19;;;;;;;6.7;5.5;;;;;;;7.42;75.30176;934.9009;;;;
2022/02/15 12:33:44;;;;;;;5.4;4.9;;;;;;;7.47;74.77734;934.9144;;;;
2022/02/15 12:36:09;;;;;;;6.2;5.6;;;;;;;7.7;74.4082;934.93;;;;
2022/02/15 12:38:34;;;;;;;5.9;5.2;;;;;;;7.75;73.92969;934.9069;;;;
2022/02/15 12:41:01;;;;;;;7.2;5.6;;;;;;;7.75;74.24707;934.9529;;;;
2022/02/15 12:43:30;;;;;;;7.2;5.2;;;;;;;7.69;74.30566;934.8918;;;;
2022/02/15 12:45:55;;;;;;;6.6;5.7;;;;;;;7.78;74.17285;934.9122;;;;
2022/02/15 12:48:23;;;;;;;7.5;5.6;;;;;;;7.71;73.43457;934.9142;;;;
2022/02/15 12:50:48;;;;;;;8.7;6.3;;;;;;;7.58;74.45605;934.95;;;;
2022/02/15 12:53:16;;;;;;;6.5;5.6;;;;;;;7.22;76.44434;934.9567;;;;
2022/02/15 12:55:42;;;;;;;6.6;5.3;;;;;;;7.41;76.52344;934.8778;;;;
2022/02/15 12:58:12;;;;;;;7.4;6;;;;;;;7.17;79.29102;934.9241;;;;
2022/02/15 13:00:37;;;;;;;9;7;;;;;;;7.37;78.48828;934.9878;;;;
2022/02/15 13:03:02;;;;;;;7.8;6.2;;;;;;;7.39;77.92676;934.9374;;;;
2022/02/15 13:05:30;;;;;;;7.3;5.6;;;;;;;7.54;78.02148;934.9534;;;;
2022/02/15 13:07:55;;;;;;;6.1;5.5;;;;;;;7.55;77.12695;934.8752;;;;
2022/02/15 13:10:26;;;;;;;6.4;5.8;;;;;;;7.55;77.47852;934.9758;;;;
2022/02/15 13:12:51;;;;;;;7.2;5.8;;;;;;;7.55;77.4668;934.9852;;;;
2022/02/15 13:15:20;;;;;;;6.5;5.4;;;;;;;7.17;78.89453;935.0056;;;;
2022/02/15 13:17:46;;;;;;;8.1;6.5;;;;;;;7.28;78.95801;935.0322;;;;
2022/02/15 13:20:14;;;;;;;8.6;6.7;;;;;;;7.26;79.0127;935.0747;;;;
2022/02/15 13:22:41;;;;;;;9.6;7.2;;;;;;;7.19;79.89453;935.1295;;;;
2022/02/15 13:25:15;;;;;;;10;7.9;;;;;;;6.93;80.36621;935.1373;;;;
2022/02/15 13:27:40;;;;;;;14.7;11.3;;;;;;;7.15;80.47559;935.2182;;;;
2022/02/15 13:30:13;;;;;;;16.3;13.2;;;;;;;7.34;79.73047;935.1378;;;;
2022/02/15 13:32:42;;;;;;;12.1;9.4;;;;;;;7.52;78.61914;935.1987;;;;
2022/02/15 13:35:13;;;;;;;13.7;11.1;;;;;;;7.51;78.35449;935.1922;;;;
2022/02/15 13:37:44;;;;;;;13.4;10.4;;;;;;;7.61;78.47461;935.1006;;;;
2022/02/15 13:40:06;;;;;;;24.7;17.7;;;;;;;7.66;77.25977;935.038;;;;
2022/02/15 13:42:34;;;;;;;20;15.5;;;;;;;7.54;77.91895;935.1041;;;;
2022/02/15 13:44:59;;;;;;;15.2;11.6;;;;;;;7.39;77.55273;935.0942;;;;
2022/02/15 13:47:27;;;;;;;14.8;10.7;;;;;;;7.46;77.91406;935.1359;;;;
2022/02/15 13:49:51;;;;;;;12;9;;;;;;;7.53;77.80273;935.2115;;;;
2022/02/15 13:52:20;;;;;;;11;8.2;;;;;;;7.71;77.42871;935.2075;;;;
2022/02/15 13:54:46;;;;;;;12.2;9;;;;;;;7.87;77.55957;935.2125;;;;
2022/02/15 13:57:13;;;;;;;10.8;7.7;;;;;;;8;76.46875;935.1763;;;;
2022/02/15 13:59:38;;;;;;;11.7;7.4;;;;;;;7.99;77.21582;935.23;;;;
2022/02/15 14:02:07;;;;;;;9.3;7;;;;;;;8.03;77.23438;935.2769;;;;
2022/02/15 14:04:37;;;;;;;8.1;5.5;;;;;;;7.9;76.74805;935.2891;;;;
2022/02/15 14:07:07;;;;;;;8.4;6.2;;;;;;;8.03;76.88379;935.319;;;;
2022/02/15 14:09:32;;;;;;;8.2;6.3;;;;;;;8.11;76.30762;935.2209;;;;
2022/02/15 14:12:01;;;;;;;10.5;7.8;;;;;;;8.06;76.40039;935.3582;;;;
2022/02/15 14:14:35;;;;;;;7.6;6;;;;;;;8.08;76.24609;935.3759;;;;
2022/02/15 14:17:41;;;;;;;7.3;5.9;;;;;;;7.99;76.29688;935.3038;;;;
2022/02/15 14:19:27;;;;;;;8.4;6.1;;;;;;;7.97;76.31445;935.3582;;;;
2022/02/15 14:21:56;;;;;;;8.2;6.4;;;;;;;8.11;75.11621;935.3359;;;;
2022/02/15 14:24:22;;;;;;;9.6;6.1;;;;;;;8.07;74.51758;935.2639;;;;
2022/02/15 14:26:48;;;;;;;9.5;6.5;;;;;;;8.15;74.47461;935.2841;;;;
2022/02/15 14:29:18;;;;;;;8.5;5.8;;;;;;;8.16;73.8877;935.335;;;;
2022/02/15 14:31:43;;;;;;;7.1;5.2;;;;;;;8.16;73.92188;935.4515;;;;
2022/02/15 14:34:15;;;;;;;6;5.4;;;;;;;8.06;73.75586;935.4891;;;;
2022/02/15 14:36:45;;;;;;;6.8;5.6;;;;;;;8.04;73.70703;935.5189;;;;
2022/02/15 14:39:10;;;;;;;6.7;5.2;;;;;;;8;73.88086;935.5092;;;;
2022/02/15 14:41:35;;;;;;;6.8;5.3;;;;;;;7.92;74.59277;935.5342;;;;
2022/02/15 14:44:03;;;;;;;8;6.2;;;;;;;7.92;74.93555;935.5471;;;;
2022/02/15 14:46:28;;;;;;;9.3;6.7;;;;;;;7.77;76.04297;935.4794;;;;
2022/02/15 14:48:56;;;;;;;8.7;6.4;;;;;;;7.67;76.94238;935.5642;;;;
2022/02/15 14:51:21;;;;;;;8.9;6.5;;;;;;;7.68;78.4541;935.5732;;;;
2022/02/15 14:53:49;;;;;;;8;6.8;;;;;;;7.47;79.43652;935.5758;;;;